MET'MAP v2.0
soon released !

Expected late october,
this new version will be
more efficient, smarter,
and hosted on a brand new
server x3 powerfull...
...and still free !


Not compatible ?
Try the mobile version !

LOG IN : | Subscribe | Disclaimer | Who is Orbifly ? |
ICAO code :

TAF - EGXP RAF Scampton - 14 Nov 2019 09:45 UTC - Data Source NOAA   


- Airport Elevation : 202 ft
- IATA code : SQZ
- No reported NOTAMs.


EGXP - RAF Scampton

Latest METAR recorded : 2015/08/11 07:50 EGXP 110750Z 25003KT CAVOK 14/11 Q1019 BLU
TAF TAF EGXP
Valid from the 14 at 09:00 until the 14 at 18:00 UTC


140750Z 1409/1418 04014KT 9999 BKN018
TEMPO 1409/1410 04017G27KT 7000 SHRA SCT012 BKN018
TEMPO 1410/1416 04017G27KT 4000 RA BKN010
PROB30
TEMPO 1410/1416 3000 +RA SCT006 BKN010
BECMG 1416/1418 BKN035

Source NOAA


MET'MAP, your aeronautical weather chart ! - Copyright ORBIFLY December 2007

Programming & Development : Alexandra Zaïnal
Co-Developer : Marc-Olivier Méhu
Technical & hardware support : Manuel Goepfert
Concept & Financing : Baudouin d'Aumeries